sensor_id;sensor_type;location;lat;lon;timestamp;temperature;humidity
10083;DHT22;5080;48.528;8.078;2023-05-19T00:01:19;12.50;99.90
10083;DHT22;5080;48.528;8.078;2023-05-19T00:03:50;12.40;99.90
10083;DHT22;5080;48.528;8.078;2023-05-19T00:06:21;12.40;99.90
10083;DHT22;5080;48.528;8.078;2023-05-19T00:08:49;12.30;99.90
10083;DHT22;5080;48.528;8.078;2023-05-19T00:11:21;12.40;99.90
10083;DHT22;5080;48.528;8.078;2023-05-19T00:13:48;12.30;99.90
10083;DHT22;5080;48.528;8.078;2023-05-19T00:16:15;12.20;99.90
10083;DHT22;5080;48.528;8.078;2023-05-19T00:18:42;12.20;99.90
10083;DHT22;5080;48.528;8.078;2023-05-19T00:21:09;12.20;99.90
10083;DHT22;5080;48.528;8.078;2023-05-19T00:23:36;12.20;99.90
10083;DHT22;5080;48.528;8.078;2023-05-19T00:26:03;12.20;99.90
10083;DHT22;5080;48.528;8.078;2023-05-19T00:28:31;12.30;99.90
10083;DHT22;5080;48.528;8.078;2023-05-19T00:30:58;12.30;99.90
10083;DHT22;5080;48.528;8.078;2023-05-19T00:33:25;12.20;99.90
10083;DHT22;5080;48.528;8.078;2023-05-19T00:35:52;12.20;99.90
10083;DHT22;5080;48.528;8.078;2023-05-19T00:38:19;12.30;99.90
10083;DHT22;5080;48.528;8.078;2023-05-19T00:40:46;12.20;99.90
10083;DHT22;5080;48.528;8.078;2023-05-19T00:43:13;12.20;99.90
10083;DHT22;5080;48.528;8.078;2023-05-19T00:45:41;12.20;99.90
10083;DHT22;5080;48.528;8.078;2023-05-19T00:48:08;12.20;99.90
10083;DHT22;5080;48.528;8.078;2023-05-19T00:50:35;12.20;99.90
10083;DHT22;5080;48.528;8.078;2023-05-19T00:53:02;12.20;99.90
10083;DHT22;5080;48.528;8.078;2023-05-19T00:55:30;12.20;99.90
10083;DHT22;5080;48.528;8.078;2023-05-19T00:57:57;12.20;99.90
10083;DHT22;5080;48.528;8.078;2023-05-19T01:00:24;12.10;99.90
10083;DHT22;5080;48.528;8.078;2023-05-19T01:02:52;12.10;99.90
10083;DHT22;5080;48.528;8.078;2023-05-19T01:05:20;12.00;99.90
10083;DHT22;5080;48.528;8.078;2023-05-19T01:07:47;12.10;99.90
10083;DHT22;5080;48.528;8.078;2023-05-19T01:10:18;12.00;99.90
10083;DHT22;5080;48.528;8.078;2023-05-19T01:12:45;12.00;99.90
10083;DHT22;5080;48.528;8.078;2023-05-19T01:15:12;11.90;99.90
10083;DHT22;5080;48.528;8.078;2023-05-19T01:17:44;11.90;99.90
10083;DHT22;5080;48.528;8.078;2023-05-19T01:20:20;11.90;99.90
10083;DHT22;5080;48.528;8.078;2023-05-19T01:23:17;11.90;99.90
10083;DHT22;5080;48.528;8.078;2023-05-19T01:26:15;11.90;99.90
10083;DHT22;5080;48.528;8.078;2023-05-19T01:29:15;11.80;99.90
10083;DHT22;5080;48.528;8.078;2023-05-19T01:31:50;11.70;99.90
10083;DHT22;5080;48.528;8.078;2023-05-19T01:34:19;11.70;99.90
10083;DHT22;5080;48.528;8.078;2023-05-19T01:36:47;11.80;99.90
10083;DHT22;5080;48.528;8.078;2023-05-19T01:39:17;11.90;99.90
10083;DHT22;5080;48.528;8.078;2023-05-19T01:41:45;11.80;99.90
10083;DHT22;5080;48.528;8.078;2023-05-19T01:44:13;11.80;99.90
10083;DHT22;5080;48.528;8.078;2023-05-19T01:46:40;11.80;99.90
10083;DHT22;5080;48.528;8.078;2023-05-19T01:49:09;11.70;99.90
10083;DHT22;5080;48.528;8.078;2023-05-19T01:51:36;11.70;99.90
10083;DHT22;5080;48.528;8.078;2023-05-19T01:54:03;11.70;99.90
10083;DHT22;5080;48.528;8.078;2023-05-19T01:56:36;11.80;99.90
10083;DHT22;5080;48.528;8.078;2023-05-19T01:59:15;11.90;99.90
10083;DHT22;5080;48.528;8.078;2023-05-19T02:01:51;11.90;99.90
10083;DHT22;5080;48.528;8.078;2023-05-19T02:04:26;11.90;99.90
10083;DHT22;5080;48.528;8.078;2023-05-19T02:07:00;11.90;99.90
10083;DHT22;5080;48.528;8.078;2023-05-19T02:09:36;11.90;99.90
10083;DHT22;5080;48.528;8.078;2023-05-19T02:12:10;12.00;99.90
10083;DHT22;5080;48.528;8.078;2023-05-19T02:14:40;12.00;99.90
10083;DHT22;5080;48.528;8.078;2023-05-19T02:17:10;12.00;99.90
10083;DHT22;5080;48.528;8.078;2023-05-19T02:19:40;12.00;99.90
10083;DHT22;5080;48.528;8.078;2023-05-19T02:22:08;12.00;99.90
10083;DHT22;5080;48.528;8.078;2023-05-19T02:24:35;12.00;99.90
10083;DHT22;5080;48.528;8.078;2023-05-19T02:27:02;11.90;99.90
10083;DHT22;5080;48.528;8.078;2023-05-19T02:29:29;11.90;99.90
10083;DHT22;5080;48.528;8.078;2023-05-19T02:31:56;11.90;99.90
10083;DHT22;5080;48.528;8.078;2023-05-19T02:34:23;11.80;99.90
10083;DHT22;5080;48.528;8.078;2023-05-19T02:36:51;11.80;99.90
10083;DHT22;5080;48.528;8.078;2023-05-19T02:39:18;11.80;99.90
10083;DHT22;5080;48.528;8.078;2023-05-19T02:41:45;11.80;99.90
10083;DHT22;5080;48.528;8.078;2023-05-19T02:44:11;11.80;99.90
10083;DHT22;5080;48.528;8.078;2023-05-19T02:46:38;11.80;99.90
10083;DHT22;5080;48.528;8.078;2023-05-19T02:49:05;11.90;99.90
10083;DHT22;5080;48.528;8.078;2023-05-19T02:51:32;11.90;99.90
10083;DHT22;5080;48.528;8.078;2023-05-19T02:54:00;11.80;99.90
10083;DHT22;5080;48.528;8.078;2023-05-19T02:56:27;11.70;99.90
10083;DHT22;5080;48.528;8.078;2023-05-19T02:58:54;11.80;99.90
10083;DHT22;5080;48.528;8.078;2023-05-19T03:01:21;11.90;99.90
10083;DHT22;5080;48.528;8.078;2023-05-19T03:03:48;11.90;99.90
10083;DHT22;5080;48.528;8.078;2023-05-19T03:06:14;11.90;99.90
10083;DHT22;5080;48.528;8.078;2023-05-19T03:08:42;11.80;99.90
10083;DHT22;5080;48.528;8.078;2023-05-19T03:11:10;11.80;99.90
10083;DHT22;5080;48.528;8.078;2023-05-19T03:13:37;11.70;99.90
10083;DHT22;5080;48.528;8.078;2023-05-19T03:16:04;11.70;99.90
10083;DHT22;5080;48.528;8.078;2023-05-19T03:18:32;11.80;99.90
10083;DHT22;5080;48.528;8.078;2023-05-19T03:20:59;11.90;99.90
10083;DHT22;5080;48.528;8.078;2023-05-19T03:23:26;11.80;99.90
10083;DHT22;5080;48.528;8.078;2023-05-19T03:25:53;11.80;99.90
10083;DHT22;5080;48.528;8.078;2023-05-19T03:28:22;11.70;99.90
10083;DHT22;5080;48.528;8.078;2023-05-19T03:30:49;11.60;99.90
10083;DHT22;5080;48.528;8.078;2023-05-19T03:33:15;11.60;99.90
10083;DHT22;5080;48.528;8.078;2023-05-19T03:35:42;11.60;99.90
10083;DHT22;5080;48.528;8.078;2023-05-19T03:38:09;11.50;99.90
10083;DHT22;5080;48.528;8.078;2023-05-19T03:40:36;11.60;99.90
10083;DHT22;5080;48.528;8.078;2023-05-19T03:43:03;11.60;99.90
10083;DHT22;5080;48.528;8.078;2023-05-19T03:45:31;11.60;99.90
10083;DHT22;5080;48.528;8.078;2023-05-19T03:47:58;11.60;99.90
10083;DHT22;5080;48.528;8.078;2023-05-19T03:50:25;11.60;99.90
10083;DHT22;5080;48.528;8.078;2023-05-19T03:52:53;11.70;99.90
10083;DHT22;5080;48.528;8.078;2023-05-19T03:55:20;11.70;99.90
10083;DHT22;5080;48.528;8.078;2023-05-19T03:57:47;11.70;99.90
10083;DHT22;5080;48.528;8.078;2023-05-19T04:00:14;11.70;99.90
10083;DHT22;5080;48.528;8.078;2023-05-19T04:02:43;11.60;99.90
10083;DHT22;5080;48.528;8.078;2023-05-19T04:05:10;11.50;99.90
10083;DHT22;5080;48.528;8.078;2023-05-19T04:07:37;11.50;99.90
10083;DHT22;5080;48.528;8.078;2023-05-19T04:10:04;11.40;99.90
10083;DHT22;5080;48.528;8.078;2023-05-19T04:12:31;11.50;99.90
10083;DHT22;5080;48.528;8.078;2023-05-19T04:14:58;11.40;99.90
10083;DHT22;5080;48.528;8.078;2023-05-19T04:17:25;11.30;99.90
10083;DHT22;5080;48.528;8.078;2023-05-19T04:19:53;11.40;99.90
10083;DHT22;5080;48.528;8.078;2023-05-19T04:22:20;11.30;99.90
10083;DHT22;5080;48.528;8.078;2023-05-19T04:24:47;11.30;99.90
10083;DHT22;5080;48.528;8.078;2023-05-19T04:27:16;11.30;99.90
10083;DHT22;5080;48.528;8.078;2023-05-19T04:29:43;11.30;99.90
10083;DHT22;5080;48.528;8.078;2023-05-19T04:32:10;11.30;99.90
10083;DHT22;5080;48.528;8.078;2023-05-19T04:34:42;11.30;99.90
10083;DHT22;5080;48.528;8.078;2023-05-19T04:37:11;11.30;99.90
10083;DHT22;5080;48.528;8.078;2023-05-19T04:39:38;11.20;99.90
10083;DHT22;5080;48.528;8.078;2023-05-19T04:42:07;11.30;99.90
10083;DHT22;5080;48.528;8.078;2023-05-19T04:44:34;11.40;99.90
10083;DHT22;5080;48.528;8.078;2023-05-19T04:47:02;11.50;99.90
10083;DHT22;5080;48.528;8.078;2023-05-19T04:49:30;11.40;99.90
10083;DHT22;5080;48.528;8.078;2023-05-19T04:51:57;11.50;99.90
10083;DHT22;5080;48.528;8.078;2023-05-19T04:54:25;11.50;99.90
10083;DHT22;5080;48.528;8.078;2023-05-19T04:56:52;11.40;99.90
10083;DHT22;5080;48.528;8.078;2023-05-19T04:59:20;11.40;99.90
10083;DHT22;5080;48.528;8.078;2023-05-19T05:01:47;11.40;99.90
10083;DHT22;5080;48.528;8.078;2023-05-19T05:04:14;11.50;99.90
10083;DHT22;5080;48.528;8.078;2023-05-19T05:06:41;11.50;99.90
10083;DHT22;5080;48.528;8.078;2023-05-19T05:09:12;11.50;99.90
10083;DHT22;5080;48.528;8.078;2023-05-19T05:11:41;11.50;99.90
10083;DHT22;5080;48.528;8.078;2023-05-19T05:14:08;11.50;99.90
10083;DHT22;5080;48.528;8.078;2023-05-19T05:16:35;11.40;99.90
10083;DHT22;5080;48.528;8.078;2023-05-19T05:19:03;11.40;99.90
10083;DHT22;5080;48.528;8.078;2023-05-19T05:21:30;11.40;99.90
10083;DHT22;5080;48.528;8.078;2023-05-19T05:23:58;11.40;99.90
10083;DHT22;5080;48.528;8.078;2023-05-19T05:26:28;11.50;99.90
10083;DHT22;5080;48.528;8.078;2023-05-19T05:28:57;11.50;99.90
10083;DHT22;5080;48.528;8.078;2023-05-19T05:31:24;11.50;99.90
10083;DHT22;5080;48.528;8.078;2023-05-19T05:33:51;11.60;99.90
10083;DHT22;5080;48.528;8.078;2023-05-19T05:36:17;11.60;99.90
10083;DHT22;5080;48.528;8.078;2023-05-19T05:38:44;11.60;99.90
10083;DHT22;5080;48.528;8.078;2023-05-19T05:41:11;11.70;99.90
10083;DHT22;5080;48.528;8.078;2023-05-19T05:43:38;11.70;99.90
10083;DHT22;5080;48.528;8.078;2023-05-19T05:46:06;11.70;99.90
10083;DHT22;5080;48.528;8.078;2023-05-19T05:48:34;11.90;99.90
10083;DHT22;5080;48.528;8.078;2023-05-19T05:51:01;12.10;99.90
10083;DHT22;5080;48.528;8.078;2023-05-19T05:53:29;12.30;99.90
10083;DHT22;5080;48.528;8.078;2023-05-19T05:55:58;12.40;99.90
10083;DHT22;5080;48.528;8.078;2023-05-19T05:58:24;12.60;99.90
10083;DHT22;5080;48.528;8.078;2023-05-19T06:00:52;12.70;99.90
10083;DHT22;5080;48.528;8.078;2023-05-19T06:03:23;12.80;99.90
10083;DHT22;5080;48.528;8.078;2023-05-19T06:05:50;12.90;99.90
10083;DHT22;5080;48.528;8.078;2023-05-19T06:08:17;13.00;99.90
10083;DHT22;5080;48.528;8.078;2023-05-19T06:10:43;13.10;99.90
10083;DHT22;5080;48.528;8.078;2023-05-19T06:13:10;13.30;99.90
10083;DHT22;5080;48.528;8.078;2023-05-19T06:15:37;13.40;99.90
10083;DHT22;5080;48.528;8.078;2023-05-19T06:18:04;13.50;99.90
10083;DHT22;5080;48.528;8.078;2023-05-19T06:20:32;13.70;99.90
10083;DHT22;5080;48.528;8.078;2023-05-19T06:23:01;13.70;99.90
10083;DHT22;5080;48.528;8.078;2023-05-19T06:25:28;13.70;99.90
10083;DHT22;5080;48.528;8.078;2023-05-19T06:27:55;13.80;99.90
10083;DHT22;5080;48.528;8.078;2023-05-19T06:30:22;13.90;99.90
10083;DHT22;5080;48.528;8.078;2023-05-19T06:32:48;14.00;99.90
10083;DHT22;5080;48.528;8.078;2023-05-19T06:35:15;14.10;99.90
10083;DHT22;5080;48.528;8.078;2023-05-19T06:37:44;14.00;99.90
10083;DHT22;5080;48.528;8.078;2023-05-19T06:40:11;14.00;99.90
10083;DHT22;5080;48.528;8.078;2023-05-19T06:42:38;14.10;99.90
10083;DHT22;5080;48.528;8.078;2023-05-19T06:45:06;14.10;99.90
10083;DHT22;5080;48.528;8.078;2023-05-19T06:47:33;14.20;99.90
10083;DHT22;5080;48.528;8.078;2023-05-19T06:50:00;14.30;99.90
10083;DHT22;5080;48.528;8.078;2023-05-19T06:52:27;14.50;99.90
10083;DHT22;5080;48.528;8.078;2023-05-19T06:54:55;14.40;99.90
10083;DHT22;5080;48.528;8.078;2023-05-19T06:57:22;14.40;99.90
10083;DHT22;5080;48.528;8.078;2023-05-19T06:59:49;14.50;99.90
10083;DHT22;5080;48.528;8.078;2023-05-19T07:02:16;14.50;99.90
10083;DHT22;5080;48.528;8.078;2023-05-19T07:04:43;14.80;99.90
10083;DHT22;5080;48.528;8.078;2023-05-19T07:07:10;14.90;99.90
10083;DHT22;5080;48.528;8.078;2023-05-19T07:09:37;15.10;99.90
10083;DHT22;5080;48.528;8.078;2023-05-19T07:12:06;15.20;99.90
10083;DHT22;5080;48.528;8.078;2023-05-19T07:14:33;15.20;99.90
10083;DHT22;5080;48.528;8.078;2023-05-19T07:17:01;15.10;99.90
10083;DHT22;5080;48.528;8.078;2023-05-19T07:19:28;15.20;99.90
10083;DHT22;5080;48.528;8.078;2023-05-19T07:21:55;15.40;99.90
10083;DHT22;5080;48.528;8.078;2023-05-19T07:24:23;15.30;99.90
10083;DHT22;5080;48.528;8.078;2023-05-19T07:26:52;15.10;99.90
10083;DHT22;5080;48.528;8.078;2023-05-19T07:29:21;15.10;99.90
10083;DHT22;5080;48.528;8.078;2023-05-19T07:31:48;15.00;99.90
10083;DHT22;5080;48.528;8.078;2023-05-19T07:34:18;15.00;99.90
10083;DHT22;5080;48.528;8.078;2023-05-19T07:36:45;15.00;99.90
10083;DHT22;5080;48.528;8.078;2023-05-19T07:39:12;15.00;99.90
10083;DHT22;5080;48.528;8.078;2023-05-19T07:41:39;15.20;99.90
10083;DHT22;5080;48.528;8.078;2023-05-19T07:44:06;15.20;99.90
10083;DHT22;5080;48.528;8.078;2023-05-19T07:46:34;15.30;99.90
10083;DHT22;5080;48.528;8.078;2023-05-19T07:49:02;15.40;99.90
10083;DHT22;5080;48.528;8.078;2023-05-19T07:51:29;15.50;99.90
10083;DHT22;5080;48.528;8.078;2023-05-19T07:53:56;15.70;99.90
10083;DHT22;5080;48.528;8.078;2023-05-19T07:56:23;15.70;99.90
10083;DHT22;5080;48.528;8.078;2023-05-19T07:58:50;15.70;99.90
10083;DHT22;5080;48.528;8.078;2023-05-19T08:01:17;15.80;99.90
10083;DHT22;5080;48.528;8.078;2023-05-19T08:03:45;15.90;99.90
10083;DHT22;5080;48.528;8.078;2023-05-19T08:06:12;16.30;99.90
10083;DHT22;5080;48.528;8.078;2023-05-19T08:08:39;16.20;99.90
10083;DHT22;5080;48.528;8.078;2023-05-19T08:11:06;16.20;99.90
10083;DHT22;5080;48.528;8.078;2023-05-19T08:13:33;16.10;99.90
10083;DHT22;5080;48.528;8.078;2023-05-19T08:16:00;16.20;99.90
10083;DHT22;5080;48.528;8.078;2023-05-19T08:18:28;16.20;99.90
10083;DHT22;5080;48.528;8.078;2023-05-19T08:20:56;16.30;99.90
10083;DHT22;5080;48.528;8.078;2023-05-19T08:23:23;16.30;99.90
10083;DHT22;5080;48.528;8.078;2023-05-19T08:25:50;16.50;99.90
10083;DHT22;5080;48.528;8.078;2023-05-19T08:28:16;16.40;99.90
10083;DHT22;5080;48.528;8.078;2023-05-19T08:30:43;16.50;99.90
10083;DHT22;5080;48.528;8.078;2023-05-19T08:33:10;16.60;99.90
10083;DHT22;5080;48.528;8.078;2023-05-19T08:35:37;16.70;99.90
10083;DHT22;5080;48.528;8.078;2023-05-19T08:38:05;16.80;99.90
10083;DHT22;5080;48.528;8.078;2023-05-19T08:40:32;16.90;99.90
10083;DHT22;5080;48.528;8.078;2023-05-19T08:43:00;16.90;99.90
10083;DHT22;5080;48.528;8.078;2023-05-19T08:45:27;16.90;99.90
10083;DHT22;5080;48.528;8.078;2023-05-19T08:47:54;16.90;99.90
10083;DHT22;5080;48.528;8.078;2023-05-19T08:50:26;16.80;99.90
10083;DHT22;5080;48.528;8.078;2023-05-19T08:53:00;16.90;99.90
10083;DHT22;5080;48.528;8.078;2023-05-19T08:55:32;16.90;99.90
10083;DHT22;5080;48.528;8.078;2023-05-19T08:58:03;16.90;99.90
10083;DHT22;5080;48.528;8.078;2023-05-19T09:00:31;17.00;99.90
10083;DHT22;5080;48.528;8.078;2023-05-19T09:03:00;17.10;99.90
10083;DHT22;5080;48.528;8.078;2023-05-19T09:05:26;17.00;99.90
10083;DHT22;5080;48.528;8.078;2023-05-19T09:07:53;17.00;99.90
10083;DHT22;5080;48.528;8.078;2023-05-19T09:10:21;17.00;99.90
10083;DHT22;5080;48.528;8.078;2023-05-19T09:12:49;17.00;99.90
10083;DHT22;5080;48.528;8.078;2023-05-19T09:15:17;16.90;99.90
10083;DHT22;5080;48.528;8.078;2023-05-19T09:17:44;16.90;99.90
10083;DHT22;5080;48.528;8.078;2023-05-19T09:20:12;17.00;99.90
10083;DHT22;5080;48.528;8.078;2023-05-19T09:22:41;17.10;99.90
10083;DHT22;5080;48.528;8.078;2023-05-19T09:25:19;17.20;99.90
10083;DHT22;5080;48.528;8.078;2023-05-19T09:27:49;17.30;99.90
10083;DHT22;5080;48.528;8.078;2023-05-19T09:30:17;17.30;99.90
10083;DHT22;5080;48.528;8.078;2023-05-19T09:32:44;17.40;99.90
10083;DHT22;5080;48.528;8.078;2023-05-19T09:35:11;17.30;99.90
10083;DHT22;5080;48.528;8.078;2023-05-19T09:37:41;17.40;99.90
10083;DHT22;5080;48.528;8.078;2023-05-19T09:40:09;17.40;99.90
10083;DHT22;5080;48.528;8.078;2023-05-19T09:42:37;17.40;99.90
10083;DHT22;5080;48.528;8.078;2023-05-19T09:45:07;17.50;99.90
10083;DHT22;5080;48.528;8.078;2023-05-19T09:47:34;17.50;99.90
10083;DHT22;5080;48.528;8.078;2023-05-19T09:50:04;17.40;99.90
10083;DHT22;5080;48.528;8.078;2023-05-19T09:52:34;17.50;99.90
10083;DHT22;5080;48.528;8.078;2023-05-19T09:55:02;17.50;99.90
10083;DHT22;5080;48.528;8.078;2023-05-19T09:57:32;17.50;99.90
10083;DHT22;5080;48.528;8.078;2023-05-19T10:00:02;17.60;99.90
10083;DHT22;5080;48.528;8.078;2023-05-19T10:02:39;17.60;99.90
10083;DHT22;5080;48.528;8.078;2023-05-19T10:05:12;17.60;99.90
10083;DHT22;5080;48.528;8.078;2023-05-19T10:07:42;17.60;99.90
10083;DHT22;5080;48.528;8.078;2023-05-19T10:10:11;17.50;99.90
10083;DHT22;5080;48.528;8.078;2023-05-19T10:12:39;17.40;99.90
10083;DHT22;5080;48.528;8.078;2023-05-19T10:15:11;17.40;99.90
10083;DHT22;5080;48.528;8.078;2023-05-19T10:17:41;17.40;99.90
10083;DHT22;5080;48.528;8.078;2023-05-19T10:20:09;17.60;99.90
10083;DHT22;5080;48.528;8.078;2023-05-19T10:22:37;17.60;99.90
10083;DHT22;5080;48.528;8.078;2023-05-19T10:25:04;17.50;99.90
10083;DHT22;5080;48.528;8.078;2023-05-19T10:27:33;17.60;99.90
10083;DHT22;5080;48.528;8.078;2023-05-19T10:30:06;17.60;99.90
10083;DHT22;5080;48.528;8.078;2023-05-19T10:32:36;17.80;99.90
10083;DHT22;5080;48.528;8.078;2023-05-19T10:38:08;17.70;99.90
10083;DHT22;5080;48.528;8.078;2023-05-19T10:40:42;17.70;99.90
10083;DHT22;5080;48.528;8.078;2023-05-19T10:43:23;17.70;99.90
10083;DHT22;5080;48.528;8.078;2023-05-19T10:45:53;17.70;99.90
10083;DHT22;5080;48.528;8.078;2023-05-19T10:48:20;17.70;99.90
10083;DHT22;5080;48.528;8.078;2023-05-19T10:50:52;17.70;99.90
10083;DHT22;5080;48.528;8.078;2023-05-19T10:53:19;17.70;99.90
10083;DHT22;5080;48.528;8.078;2023-05-19T10:55:50;17.70;99.90
10083;DHT22;5080;48.528;8.078;2023-05-19T10:58:36;17.80;99.90
10083;DHT22;5080;48.528;8.078;2023-05-19T11:01:07;17.80;99.90
10083;DHT22;5080;48.528;8.078;2023-05-19T11:03:46;17.90;99.90
10083;DHT22;5080;48.528;8.078;2023-05-19T11:06:19;18.00;99.90
10083;DHT22;5080;48.528;8.078;2023-05-19T11:08:46;18.00;99.90
10083;DHT22;5080;48.528;8.078;2023-05-19T11:11:17;17.80;99.90
10083;DHT22;5080;48.528;8.078;2023-05-19T11:13:46;17.80;99.90
10083;DHT22;5080;48.528;8.078;2023-05-19T11:16:14;17.90;99.90
10083;DHT22;5080;48.528;8.078;2023-05-19T11:18:47;17.80;99.90
10083;DHT22;5080;48.528;8.078;2023-05-19T11:21:15;17.80;99.90
10083;DHT22;5080;48.528;8.078;2023-05-19T11:23:43;17.90;99.90
10083;DHT22;5080;48.528;8.078;2023-05-19T11:26:11;17.90;99.90
10083;DHT22;5080;48.528;8.078;2023-05-19T11:28:38;17.90;99.90
10083;DHT22;5080;48.528;8.078;2023-05-19T11:31:06;17.90;99.90
10083;DHT22;5080;48.528;8.078;2023-05-19T11:33:35;17.80;99.90
10083;DHT22;5080;48.528;8.078;2023-05-19T11:36:02;17.70;99.90
10083;DHT22;5080;48.528;8.078;2023-05-19T11:38:30;17.70;99.90
10083;DHT22;5080;48.528;8.078;2023-05-19T11:40:59;17.70;99.90
10083;DHT22;5080;48.528;8.078;2023-05-19T11:43:26;17.70;99.90
10083;DHT22;5080;48.528;8.078;2023-05-19T11:45:53;17.80;99.90
10083;DHT22;5080;48.528;8.078;2023-05-19T11:48:21;17.90;99.90
10083;DHT22;5080;48.528;8.078;2023-05-19T11:50:48;18.00;99.90
10083;DHT22;5080;48.528;8.078;2023-05-19T11:53:16;18.00;99.90
10083;DHT22;5080;48.528;8.078;2023-05-19T11:55:44;18.00;99.90
10083;DHT22;5080;48.528;8.078;2023-05-19T11:58:13;18.10;99.90
10083;DHT22;5080;48.528;8.078;2023-05-19T12:00:41;18.00;99.90
10083;DHT22;5080;48.528;8.078;2023-05-19T12:03:10;17.90;99.90
10083;DHT22;5080;48.528;8.078;2023-05-19T12:05:41;17.90;99.90
10083;DHT22;5080;48.528;8.078;2023-05-19T12:08:09;17.90;99.90
10083;DHT22;5080;48.528;8.078;2023-05-19T12:10:36;18.00;99.90
10083;DHT22;5080;48.528;8.078;2023-05-19T12:13:04;18.00;99.90
10083;DHT22;5080;48.528;8.078;2023-05-19T12:15:35;18.00;99.90
10083;DHT22;5080;48.528;8.078;2023-05-19T12:18:02;18.00;99.90
10083;DHT22;5080;48.528;8.078;2023-05-19T12:20:29;18.00;99.90
10083;DHT22;5080;48.528;8.078;2023-05-19T12:23:00;18.00;99.90
10083;DHT22;5080;48.528;8.078;2023-05-19T12:25:28;18.00;99.90
10083;DHT22;5080;48.528;8.078;2023-05-19T12:27:57;18.10;99.90
10083;DHT22;5080;48.528;8.078;2023-05-19T12:30:26;18.10;99.90
10083;DHT22;5080;48.528;8.078;2023-05-19T12:32:55;18.10;99.90
10083;DHT22;5080;48.528;8.078;2023-05-19T12:35:25;18.10;99.90
10083;DHT22;5080;48.528;8.078;2023-05-19T12:37:53;18.20;99.90
10083;DHT22;5080;48.528;8.078;2023-05-19T12:40:20;18.20;99.90
10083;DHT22;5080;48.528;8.078;2023-05-19T12:42:48;18.20;99.90
10083;DHT22;5080;48.528;8.078;2023-05-19T12:45:19;18.20;99.90
10083;DHT22;5080;48.528;8.078;2023-05-19T12:47:47;18.10;99.90
10083;DHT22;5080;48.528;8.078;2023-05-19T12:50:16;18.10;99.90
10083;DHT22;5080;48.528;8.078;2023-05-19T12:52:45;18.20;99.90
10083;DHT22;5080;48.528;8.078;2023-05-19T12:55:13;18.10;99.90
10083;DHT22;5080;48.528;8.078;2023-05-19T12:58:08;18.20;99.90
10083;DHT22;5080;48.528;8.078;2023-05-19T13:00:39;18.30;99.90
10083;DHT22;5080;48.528;8.078;2023-05-19T13:03:07;18.30;99.90
10083;DHT22;5080;48.528;8.078;2023-05-19T13:05:39;18.40;99.90
10083;DHT22;5080;48.528;8.078;2023-05-19T13:08:09;18.40;99.90
10083;DHT22;5080;48.528;8.078;2023-05-19T13:10:37;18.30;99.90
10083;DHT22;5080;48.528;8.078;2023-05-19T13:13:05;18.20;99.90
10083;DHT22;5080;48.528;8.078;2023-05-19T13:15:35;18.20;99.90
10083;DHT22;5080;48.528;8.078;2023-05-19T13:18:03;18.10;99.90
10083;DHT22;5080;48.528;8.078;2023-05-19T13:20:30;18.00;99.90
10083;DHT22;5080;48.528;8.078;2023-05-19T13:23:01;18.20;99.90
10083;DHT22;5080;48.528;8.078;2023-05-19T13:25:29;18.10;99.90
10083;DHT22;5080;48.528;8.078;2023-05-19T13:27:57;18.10;99.90
10083;DHT22;5080;48.528;8.078;2023-05-19T13:30:26;18.20;99.90
10083;DHT22;5080;48.528;8.078;2023-05-19T13:32:53;18.20;99.90
10083;DHT22;5080;48.528;8.078;2023-05-19T13:35:20;18.20;99.90
10083;DHT22;5080;48.528;8.078;2023-05-19T13:37:48;18.20;99.90
10083;DHT22;5080;48.528;8.078;2023-05-19T13:40:23;18.20;99.90
10083;DHT22;5080;48.528;8.078;2023-05-19T13:42:52;18.00;99.90
10083;DHT22;5080;48.528;8.078;2023-05-19T13:45:19;18.10;99.90
10083;DHT22;5080;48.528;8.078;2023-05-19T13:47:46;18.20;99.90
10083;DHT22;5080;48.528;8.078;2023-05-19T13:50:13;18.20;99.90
10083;DHT22;5080;48.528;8.078;2023-05-19T13:52:40;18.20;99.90
10083;DHT22;5080;48.528;8.078;2023-05-19T13:55:08;18.10;99.90
10083;DHT22;5080;48.528;8.078;2023-05-19T13:57:36;18.00;99.90
10083;DHT22;5080;48.528;8.078;2023-05-19T14:00:04;18.00;99.90
10083;DHT22;5080;48.528;8.078;2023-05-19T14:02:32;18.00;99.90
10083;DHT22;5080;48.528;8.078;2023-05-19T14:04:59;18.10;99.90
10083;DHT22;5080;48.528;8.078;2023-05-19T14:07:26;18.00;99.90
10083;DHT22;5080;48.528;8.078;2023-05-19T14:09:53;18.10;99.90
10083;DHT22;5080;48.528;8.078;2023-05-19T14:12:19;18.20;99.90
10083;DHT22;5080;48.528;8.078;2023-05-19T14:14:48;18.30;99.90
10083;DHT22;5080;48.528;8.078;2023-05-19T14:17:15;18.40;99.90
10083;DHT22;5080;48.528;8.078;2023-05-19T14:19:42;18.50;99.90
10083;DHT22;5080;48.528;8.078;2023-05-19T14:22:08;18.40;99.90
10083;DHT22;5080;48.528;8.078;2023-05-19T14:24:37;18.40;99.90
10083;DHT22;5080;48.528;8.078;2023-05-19T14:27:04;18.50;99.90
10083;DHT22;5080;48.528;8.078;2023-05-19T14:29:31;18.40;99.90
10083;DHT22;5080;48.528;8.078;2023-05-19T14:31:59;18.30;99.90
10083;DHT22;5080;48.528;8.078;2023-05-19T14:34:27;18.30;99.90
10083;DHT22;5080;48.528;8.078;2023-05-19T14:36:54;18.10;99.90
10083;DHT22;5080;48.528;8.078;2023-05-19T14:39:21;18.20;99.90
10083;DHT22;5080;48.528;8.078;2023-05-19T14:41:47;18.20;99.90
10083;DHT22;5080;48.528;8.078;2023-05-19T14:44:15;18.30;99.90
10083;DHT22;5080;48.528;8.078;2023-05-19T14:46:42;18.30;99.90
10083;DHT22;5080;48.528;8.078;2023-05-19T14:49:11;18.30;99.90
10083;DHT22;5080;48.528;8.078;2023-05-19T14:51:37;18.30;99.90
10083;DHT22;5080;48.528;8.078;2023-05-19T14:54:04;18.40;99.90
10083;DHT22;5080;48.528;8.078;2023-05-19T14:56:31;18.50;99.90
10083;DHT22;5080;48.528;8.078;2023-05-19T14:58:58;18.50;99.90
10083;DHT22;5080;48.528;8.078;2023-05-19T15:01:25;18.50;99.90
10083;DHT22;5080;48.528;8.078;2023-05-19T15:03:51;18.50;99.90
10083;DHT22;5080;48.528;8.078;2023-05-19T15:06:20;18.60;99.90
10083;DHT22;5080;48.528;8.078;2023-05-19T15:08:47;18.60;99.90
10083;DHT22;5080;48.528;8.078;2023-05-19T15:11:19;18.50;99.90
10083;DHT22;5080;48.528;8.078;2023-05-19T15:13:46;18.50;99.90
10083;DHT22;5080;48.528;8.078;2023-05-19T15:16:13;18.60;99.90
10083;DHT22;5080;48.528;8.078;2023-05-19T15:18:40;18.60;99.90
10083;DHT22;5080;48.528;8.078;2023-05-19T15:21:07;18.50;99.90
10083;DHT22;5080;48.528;8.078;2023-05-19T15:23:35;18.50;99.90
10083;DHT22;5080;48.528;8.078;2023-05-19T15:26:02;18.40;99.90
10083;DHT22;5080;48.528;8.078;2023-05-19T15:28:29;18.30;99.90
10083;DHT22;5080;48.528;8.078;2023-05-19T15:30:56;18.30;99.90
10083;DHT22;5080;48.528;8.078;2023-05-19T15:33:23;18.20;99.90
10083;DHT22;5080;48.528;8.078;2023-05-19T15:35:50;18.30;99.90
10083;DHT22;5080;48.528;8.078;2023-05-19T15:38:17;18.30;99.90
10083;DHT22;5080;48.528;8.078;2023-05-19T15:40:46;18.30;99.90
10083;DHT22;5080;48.528;8.078;2023-05-19T15:43:13;18.40;99.90
10083;DHT22;5080;48.528;8.078;2023-05-19T15:45:39;18.40;99.90
10083;DHT22;5080;48.528;8.078;2023-05-19T15:48:06;18.40;99.90
10083;DHT22;5080;48.528;8.078;2023-05-19T15:50:33;18.40;99.90
10083;DHT22;5080;48.528;8.078;2023-05-19T15:53:00;18.40;99.90
10083;DHT22;5080;48.528;8.078;2023-05-19T15:55:27;18.40;99.90